Terminal Aerodrome Forecast
Issued by NWS

Home | Current Version | Previous Version | Text Only | Print | Product List | Glossary On
Versions: 1 2 3 4 5 6 7 8 9 10 11 12 13
000
FTUS44 KJAN 200500 RRA
TAFHKS
TAF
KHKS 200551Z 2006/2106 00000KT P6SM SKC
     FM201000 VRB03KT 5SM BR SKC
     FM201400 08006KT P6SM SKC=

USA.gov is the U.S. government's official web portal to all federal, state and local government web resources and services.